Newark, NJ (07101)

2:18 AM EDT on July 26, 2016 (GMT -0400)
Rutgers Biomedical and Health Sciences Campus | | Change Station

Elev 144 ft 40.74 °N, 74.19 °W | Updated 4 seconds ago

Partly Cloudy
Partly Cloudy
73.9 °F
Feels Like 73.9 °F
N
1.7
Wind Variable Wind from NW
Gusts 2.0 mph

Today
High -- | Low -- °F
--% Chance of Precip.
Yesterday
High -- | Low -- °F
Precip. -- in
Pressure 29.87 in
Visibility 10.0 miles
Clouds Few 1000 ft
Few 20000 ft
Dew Point 74 °F
Humidity 100%
Rainfall 0.00 in
Snow Depth Not available.
5:48 AM 8:17 PM
Waning Gibbous, 58% visible
METAR KEWR 260551Z 28008KT 10SM FEW010 FEW200 23/22 A2987 RMK AO2 SLP113 60000 T02330217 10250 20233 58005 $
Pressure 29.87 in
Visibility 10.0 miles
Clouds Few 1000 ft
Few 20000 ft
Dew Point 74 °F
Humidity 100%
Rainfall 0.00 in
Snow Depth Not available.
5:48 AM 8:17 PM
Waning Gibbous, 58% visible
METAR KEWR 260551Z 28008KT 10SM FEW010 FEW200 23/22 A2987 RMK AO2 SLP113 60000 T02330217 10250 20233 58005 $

10-Day Weather Forecast

Almanac

Astronomy

Jul. 26, 2016 Rise Set
Actual Time
Civil Twilight
Nautical Twilight
Astronomical Twilight
Moon
Length of Visible Light
Length of Day
Tomorrow will be .
, % of the Moon is Illuminated

Today's Extremes

State Highs State Lows

Community

WunderPhotos

Upload Photos

1,927,547 photos uploaded!

WunderBlog® & News

Nearby

Air Quality

  Air Quality AQ Index Pollutant
Not available.

Snow Depth

Station Depth Elevation

Earthquake Activity

City Distance Mag. Time & Date
Minimum magnitude displayed is 2.5.

Coastal Water Temperatures

Place Temperature

Stations

Nearby Weather Stations

Station Location Temp. Windchill Dew Point Humidity Wind Precip. Elev Updated Type
                   

Watches & Warnings

There are currently no watches in effect.